createdAt,value
2023-03-29T00:02:17.814Z,29.93
2023-03-29T00:04:44.207Z,29.93
2023-03-29T00:07:10.544Z,30.00
2023-03-29T00:09:36.951Z,29.96
2023-03-29T00:12:03.316Z,29.98
2023-03-29T00:14:29.670Z,29.95
2023-03-29T00:16:56.112Z,29.98
2023-03-29T00:19:22.419Z,29.99
2023-03-29T00:21:48.798Z,29.98
2023-03-29T00:24:15.181Z,30.02
2023-03-29T00:26:41.549Z,30.01
2023-03-29T00:29:07.979Z,30.05
2023-03-29T00:31:34.415Z,30.08
2023-03-29T00:34:00.718Z,30.06
2023-03-29T00:36:27.111Z,30.09
2023-03-29T00:38:53.472Z,30.14
2023-03-29T00:41:19.877Z,30.14
2023-03-29T00:43:46.220Z,30.16
2023-03-29T00:46:12.662Z,30.17
2023-03-29T00:48:39.001Z,30.17
2023-03-29T00:51:05.399Z,30.21
2023-03-29T00:53:32.733Z,30.18
2023-03-29T00:55:58.170Z,30.22
2023-03-29T00:58:24.658Z,30.24
2023-03-29T01:00:51.121Z,30.24
2023-03-29T01:03:17.551Z,30.29
2023-03-29T01:05:43.859Z,30.28
2023-03-29T01:08:10.202Z,30.27
2023-03-29T01:10:36.596Z,30.30
2023-03-29T01:13:02.944Z,30.31
2023-03-29T01:15:29.345Z,30.31
2023-03-29T01:17:55.751Z,30.37
2023-03-29T01:20:22.122Z,30.36
2023-03-29T01:22:48.453Z,30.37
2023-03-29T01:25:14.806Z,30.39
2023-03-29T01:27:41.218Z,30.40
2023-03-29T01:30:07.580Z,30.41
2023-03-29T01:32:34.010Z,30.42
2023-03-29T01:35:00.316Z,30.44
2023-03-29T01:37:26.757Z,30.46
2023-03-29T01:39:53.112Z,30.46
2023-03-29T01:42:19.486Z,30.43
2023-03-29T01:44:45.815Z,30.43
2023-03-29T01:47:12.203Z,30.49
2023-03-29T01:52:23.874Z,30.41
2023-03-29T01:54:50.272Z,30.38
2023-03-29T01:57:16.730Z,30.40
2023-03-29T01:59:43.031Z,30.40
2023-03-29T02:02:09.458Z,30.39
2023-03-29T02:04:35.779Z,30.40
2023-03-29T02:07:02.159Z,30.27
2023-03-29T02:09:28.576Z,29.96
2023-03-29T02:11:54.966Z,29.78
2023-03-29T02:14:21.312Z,29.60
2023-03-29T02:16:47.718Z,29.43
2023-03-29T02:19:14.070Z,29.29
2023-03-29T02:21:40.501Z,29.01
2023-03-29T02:24:07.869Z,28.79
2023-03-29T02:26:33.276Z,28.95
2023-03-29T02:28:59.623Z,29.03
2023-03-29T02:31:26.053Z,29.06
2023-03-29T02:33:52.359Z,29.55
2023-03-29T02:36:18.864Z,29.94
2023-03-29T02:38:45.166Z,30.01
2023-03-29T02:41:11.617Z,29.66
2023-03-29T02:43:37.965Z,29.31
2023-03-29T02:46:04.346Z,29.07
2023-03-29T02:48:30.697Z,28.83
2023-03-29T02:50:57.088Z,29.09
2023-03-29T02:53:23.439Z,29.39
2023-03-29T02:55:49.821Z,29.24
2023-03-29T02:58:16.171Z,29.19
2023-03-29T03:00:42.569Z,29.08
2023-03-29T03:03:09.110Z,28.73
2023-03-29T03:05:35.345Z,28.34
2023-03-29T03:08:01.722Z,28.19
2023-03-29T03:10:28.113Z,27.96
2023-03-29T03:12:54.497Z,28.02
2023-03-29T03:15:20.891Z,28.26
2023-03-29T03:17:47.349Z,28.68
2023-03-29T03:20:13.757Z,29.14
2023-03-29T03:22:40.054Z,29.36
2023-03-29T03:25:06.441Z,29.43
2023-03-29T03:27:32.800Z,29.79
2023-03-29T03:29:59.196Z,29.81
2023-03-29T03:32:25.577Z,29.91
2023-03-29T03:34:51.940Z,29.60
2023-03-29T03:37:18.303Z,29.32
2023-03-29T03:39:44.682Z,29.39
2023-03-29T03:42:11.098Z,29.15
2023-03-29T03:44:37.476Z,28.66
2023-03-29T03:47:03.823Z,28.64
2023-03-29T03:49:30.212Z,28.21
2023-03-29T03:51:56.553Z,28.57
2023-03-29T03:54:22.952Z,28.37
2023-03-29T03:56:49.321Z,33.55
2023-03-29T03:59:15.688Z,29.05
2023-03-29T04:01:42.041Z,28.33
2023-03-29T04:04:08.531Z,28.15
2023-03-29T04:06:34.830Z,27.99
2023-03-29T04:09:01.221Z,28.04
2023-03-29T04:11:27.566Z,27.98
2023-03-29T04:13:53.964Z,27.99
2023-03-29T04:16:20.444Z,28.05
2023-03-29T04:18:46.881Z,28.15
2023-03-29T04:21:13.188Z,28.34
2023-03-29T04:23:39.590Z,28.50
2023-03-29T04:26:05.940Z,28.46
2023-03-29T04:28:32.343Z,28.41
2023-03-29T04:30:58.705Z,28.58
2023-03-29T04:33:25.074Z,28.19
2023-03-29T04:35:51.444Z,28.24
2023-03-29T04:40:15.910Z,28.21
2023-03-29T04:42:42.314Z,28.07
2023-03-29T04:45:08.689Z,27.86
2023-03-29T04:47:35.143Z,27.41
2023-03-29T04:50:01.467Z,27.14
2023-03-29T04:52:27.850Z,27.14
2023-03-29T04:54:54.208Z,27.10
2023-03-29T04:57:20.681Z,27.22
2023-03-29T04:59:46.961Z,27.03
2023-03-29T05:02:13.386Z,27.05
2023-03-29T05:04:39.776Z,27.29
2023-03-29T05:07:06.128Z,27.37
2023-03-29T05:09:35.029Z,27.63
2023-03-29T05:11:58.885Z,27.70
2023-03-29T05:14:25.245Z,27.52
2023-03-29T05:16:51.642Z,27.31
2023-03-29T05:19:17.985Z,27.28
2023-03-29T05:21:45.608Z,27.13
2023-03-29T05:24:10.735Z,26.66
2023-03-29T05:26:37.124Z,26.73
2023-03-29T05:29:03.485Z,26.83
2023-03-29T05:31:29.909Z,27.26
2023-03-29T05:33:56.416Z,27.50
2023-03-29T05:36:22.810Z,27.37
2023-03-29T05:38:49.179Z,27.39
2023-03-29T05:41:15.592Z,27.60
2023-03-29T05:43:41.964Z,27.70
2023-03-29T05:46:08.355Z,27.79
2023-03-29T05:48:34.696Z,27.78
2023-03-29T05:51:01.220Z,27.54
2023-03-29T05:53:27.461Z,26.82
2023-03-29T05:55:53.847Z,27.68
2023-03-29T05:58:20.278Z,27.68
2023-03-29T06:00:46.634Z,27.05
2023-03-29T06:03:18.032Z,26.79
2023-03-29T06:05:39.417Z,27.24
2023-03-29T06:08:05.789Z,26.82
2023-03-29T06:10:32.187Z,26.99
2023-03-29T06:12:58.540Z,27.50
2023-03-29T06:15:24.938Z,27.28
2023-03-29T06:17:51.344Z,27.22
2023-03-29T06:20:17.718Z,27.47
2023-03-29T06:22:44.080Z,27.64
2023-03-29T06:25:10.462Z,27.79
2023-03-29T06:27:36.840Z,27.66
2023-03-29T06:30:03.232Z,27.99
2023-03-29T06:32:29.615Z,28.58
2023-03-29T06:34:55.990Z,28.32
2023-03-29T06:37:22.406Z,28.35
2023-03-29T06:39:49.536Z,28.41
2023-03-29T06:42:21.068Z,28.26
2023-03-29T06:44:41.546Z,28.36
2023-03-29T06:47:07.906Z,28.43
2023-03-29T06:49:34.368Z,28.37
2023-03-29T06:52:00.714Z,28.51
2023-03-29T06:54:27.116Z,27.99
2023-03-29T06:56:53.490Z,27.60
2023-03-29T06:59:19.880Z,27.74
2023-03-29T07:01:46.386Z,27.59
2023-03-29T07:04:12.681Z,27.56
2023-03-29T07:06:39.056Z,27.62
2023-03-29T07:09:05.451Z,27.93
2023-03-29T07:11:31.795Z,27.85
2023-03-29T07:13:58.201Z,27.69
2023-03-29T07:16:24.648Z,27.91
2023-03-29T07:18:50.982Z,27.86
2023-03-29T07:21:17.332Z,28.08
2023-03-29T07:23:43.728Z,28.23
2023-03-29T07:26:10.091Z,28.22
2023-03-29T07:28:36.504Z,27.28
2023-03-29T07:31:03.028Z,27.03
2023-03-29T07:33:29.381Z,26.99
2023-03-29T07:35:55.702Z,27.05
2023-03-29T07:38:22.142Z,27.05
2023-03-29T07:40:48.500Z,27.10
2023-03-29T07:43:14.895Z,27.18
2023-03-29T07:45:41.278Z,27.05
2023-03-29T07:48:07.767Z,27.17
2023-03-29T07:50:34.066Z,27.25
2023-03-29T07:53:00.463Z,27.40
2023-03-29T07:55:26.807Z,27.60
2023-03-29T07:57:53.267Z,27.36
2023-03-29T08:00:19.720Z,26.89
2023-03-29T08:02:46.129Z,27.11
2023-03-29T08:05:12.444Z,26.28
2023-03-29T08:07:38.820Z,26.58
2023-03-29T08:10:05.174Z,25.50
2023-03-29T08:12:31.578Z,25.49
2023-03-29T08:14:57.974Z,25.97
2023-03-29T08:17:24.358Z,26.68
2023-03-29T08:19:52.438Z,26.56
2023-03-29T08:22:17.137Z,27.11
2023-03-29T08:24:43.503Z,26.88
2023-03-29T08:27:09.894Z,27.07
2023-03-29T08:29:36.242Z,26.86
2023-03-29T08:32:02.764Z,27.34
2023-03-29T08:34:29.141Z,27.34
2023-03-29T08:36:55.526Z,27.31
2023-03-29T08:39:21.887Z,27.41
2023-03-29T08:41:48.322Z,27.49
2023-03-29T08:44:14.680Z,27.67
2023-03-29T08:46:41.212Z,27.75
2023-03-29T08:49:07.521Z,27.74
2023-03-29T08:51:33.924Z,27.61
2023-03-29T08:54:00.291Z,28.00
2023-03-29T08:56:26.690Z,26.82
2023-03-29T08:58:53.097Z,27.90
2023-03-29T09:01:19.569Z,27.44
2023-03-29T09:03:46.049Z,27.55
2023-03-29T09:06:12.358Z,27.62
2023-03-29T09:08:38.697Z,27.72
2023-03-29T09:11:05.079Z,27.95
2023-03-29T09:13:31.447Z,28.40
2023-03-29T09:15:57.836Z,28.79
2023-03-29T09:18:24.173Z,28.48
2023-03-29T09:20:50.592Z,28.59
2023-03-29T09:23:17.116Z,28.82
2023-03-29T09:25:52.608Z,28.84
2023-03-29T09:28:09.803Z,28.52
2023-03-29T09:30:36.193Z,28.43
2023-03-29T09:33:02.590Z,28.70
2023-03-29T09:35:28.962Z,28.78
2023-03-29T09:37:55.287Z,28.60
2023-03-29T09:40:21.683Z,28.07
2023-03-29T09:42:48.025Z,27.48
